Time;durP1;ratioP1;P1;durP2;ratioP2;P2;SDS_P1;SDS_P2;PMS_P1;PMS_P2;Temp;Humidity;BMP_temperature;BMP_pressure;BME280_temperature;BME280_humidity;BME280_pressure;Samples;Min_cycle;Max_cycle;Signal;HPM_P1;HPM_P2
2023/01/07 00:01:41;;;;;;;4.32;2.50;;;;;;;18.83;49.83;101497.44;5028351;28;20030;-53
2023/01/07 00:04:10;;;;;;;2.92;2.35;;;;;;;18.83;49.85;101491.22;5028179;28;20034;-56
2023/01/07 00:06:38;;;;;;;3.40;2.38;;;;;;;18.83;49.56;101496.59;5010431;28;20591;-56
2023/01/07 00:09:05;;;;;;;3.00;2.25;;;;;;;18.82;49.97;101487.69;5023405;28;20028;-58
2023/01/07 00:11:33;;;;;;;4.22;2.50;;;;;;;18.82;49.93;101492.19;5008373;28;20399;-58
2023/01/07 00:14:00;;;;;;;2.40;1.98;;;;;;;18.81;49.70;101485.97;5008642;28;20026;-55
2023/01/07 00:16:29;;;;;;;2.70;2.10;;;;;;;18.80;50.08;101492.34;5011291;28;20053;-58
2023/01/07 00:18:56;;;;;;;3.83;2.20;;;;;;;18.81;50.10;101482.44;5027689;28;20050;-57
2023/01/07 00:21:22;;;;;;;3.28;2.63;;;;;;;18.81;49.55;101482.44;5028039;28;20029;-55
2023/01/07 00:23:48;;;;;;;2.90;2.28;;;;;;;18.81;49.94;101485.97;5027601;28;20044;-55
2023/01/07 00:26:16;;;;;;;2.97;1.92;;;;;;;18.79;50.02;101474.50;5027899;28;20045;-55
2023/01/07 00:28:44;;;;;;;2.60;2.00;;;;;;;18.80;49.68;101481.59;5010436;28;20426;-54
2023/01/07 00:31:12;;;;;;;3.42;2.22;;;;;;;18.78;50.09;101478.22;5027842;28;20037;-58
2023/01/07 00:33:50;;;;;;;2.50;1.85;;;;;;;18.78;49.73;101462.06;5027590;28;20041;-53
2023/01/07 00:36:16;;;;;;;2.22;1.63;;;;;;;18.78;49.93;101459.34;5027670;28;20046;-53
2023/01/07 00:38:41;;;;;;;3.00;1.98;;;;;;;18.77;50.01;101462.19;5027764;28;20053;-55
2023/01/07 00:41:08;;;;;;;2.42;2.00;;;;;;;18.76;49.78;101471.28;5027600;28;20093;-56
2023/01/07 00:43:33;;;;;;;3.53;1.90;;;;;;;18.76;50.04;101468.56;5009918;28;20034;-55
2023/01/07 00:45:58;;;;;;;3.28;2.22;;;;;;;18.76;49.76;101463.19;5027432;28;20083;-56
2023/01/07 00:48:24;;;;;;;2.53;1.65;;;;;;;18.76;50.17;101463.19;5027225;28;20033;-55
2023/01/07 00:50:51;;;;;;;2.42;1.85;;;;;;;18.75;50.01;101466.88;5027507;28;20052;-56
2023/01/07 00:53:16;;;;;;;2.10;1.80;;;;;;;18.74;49.89;101466.06;5027678;28;20030;-56
2023/01/07 00:55:42;;;;;;;2.80;2.03;;;;;;;18.74;49.79;101468.75;5027073;28;20022;-52
2023/01/07 00:58:13;;;;;;;2.85;1.95;;;;;;;18.72;50.07;101462.66;5027352;28;20049;-55
2023/01/07 01:00:38;;;;;;;2.03;1.83;;;;;;;18.73;50.01;101467.91;5027465;28;20028;-55
2023/01/07 01:03:03;;;;;;;2.35;1.77;;;;;;;18.73;49.77;101464.34;5027086;28;20026;-53
2023/01/07 01:05:28;;;;;;;2.75;1.95;;;;;;;18.71;49.85;101456.41;5027137;28;20032;-54
2023/01/07 01:07:54;;;;;;;2.63;1.98;;;;;;;18.71;49.60;101464.50;5027081;28;20379;-54
2023/01/07 01:10:19;;;;;;;3.13;2.20;;;;;;;18.70;50.14;101459.28;5026890;28;20372;-54
2023/01/07 01:12:45;;;;;;;2.67;2.08;;;;;;;18.65;49.81;101442.69;5026269;28;20034;-55
2023/01/07 01:15:13;;;;;;;2.53;1.90;;;;;;;18.70;49.79;101451.19;5027095;28;20041;-53
2023/01/07 01:17:38;;;;;;;3.22;1.70;;;;;;;18.68;49.86;101440.53;5026781;28;20030;-55
2023/01/07 01:20:05;;;;;;;2.55;1.75;;;;;;;18.64;50.05;101441.81;5026910;28;20026;-53
2023/01/07 01:22:30;;;;;;;2.75;2.13;;;;;;;18.67;49.94;101444.22;5027035;28;20030;-56
2023/01/07 01:24:56;;;;;;;2.95;1.73;;;;;;;18.67;50.12;101452.31;5026747;28;20025;-56
2023/01/07 01:27:21;;;;;;;2.13;1.60;;;;;;;18.67;49.75;101435.31;5026816;28;20026;-54
2023/01/07 01:29:46;;;;;;;2.42;1.70;;;;;;;18.67;50.02;101432.59;5026955;28;20037;-55
2023/01/07 01:32:12;;;;;;;3.13;1.98;;;;;;;18.66;49.97;101439.84;5026959;28;20447;-57
2023/01/07 01:34:37;;;;;;;3.63;1.92;;;;;;;18.66;49.74;101434.47;5026597;28;20065;-55
2023/01/07 01:37:02;;;;;;;2.78;1.95;;;;;;;18.65;49.82;101438.16;5026493;28;20042;-56
2023/01/07 01:39:28;;;;;;;2.70;1.88;;;;;;;18.32;50.03;101385.00;5026726;28;20133;-55
2023/01/07 01:41:53;;;;;;;2.30;2.05;;;;;;;18.64;50.22;101441.81;5026624;28;20080;-56
2023/01/07 01:44:36;;;;;;;2.80;2.40;;;;;;;18.63;50.05;101453.63;5026730;28;20018;-52
2023/01/07 01:47:10;;;;;;;2.47;1.77;;;;;;;18.60;49.81;101447.69;5026273;28;20374;-56
2023/01/07 01:49:44;;;;;;;2.63;1.80;;;;;;;18.60;49.61;101442.28;4992374;28;20036;-56
2023/01/07 01:52:17;;;;;;;1.98;1.70;;;;;;;18.63;49.71;101447.38;4992394;28;20049;-57
2023/01/07 01:54:51;;;;;;;3.58;1.60;;;;;;;18.63;49.77;101452.78;5026296;28;20030;-53
2023/01/07 01:57:19;;;;;;;3.30;1.70;;;;;;;18.62;49.93;101445.69;5026238;28;20022;-54
2023/01/07 01:59:47;;;;;;;2.47;1.90;;;;;;;18.60;49.81;101453.91;5008579;28;20085;-56
2023/01/07 02:02:14;;;;;;;2.40;1.67;;;;;;;18.61;49.77;101450.25;5008596;28;20041;-57
2023/01/07 02:04:39;;;;;;;3.10;1.83;;;;;;;18.60;49.81;101448.53;5008263;28;20018;-57
2023/01/07 02:07:06;;;;;;;2.60;1.63;;;;;;;18.61;49.89;101452.09;5025931;28;20137;-58
2023/01/07 02:09:32;;;;;;;3.15;2.22;;;;;;;18.60;49.79;101455.75;4999996;28;20034;-57
2023/01/07 02:12:22;;;;;;;2.72;1.98;;;;;;;18.60;49.85;101447.69;5006291;28;20090;-56
2023/01/07 02:15:09;;;;;;;1.92;1.73;;;;;;;18.60;49.86;101442.28;5006295;28;20164;-56
2023/01/07 02:17:52;;;;;;;3.08;1.80;;;;;;;18.59;49.66;101448.69;5020208;28;20022;-56
2023/01/07 02:20:37;;;;;;;1.50;1.35;;;;;;;18.58;49.98;101439.75;5024082;28;20037;-58
2023/01/07 02:23:34;;;;;;;2.55;1.75;;;;;;;18.57;49.82;101448.00;5025516;28;20029;-56
2023/01/07 02:26:24;;;;;;;1.83;1.40;;;;;;;18.56;49.80;101447.13;5008200;28;20022;-58
2023/01/07 02:29:26;;;;;;;2.72;1.90;;;;;;;18.55;49.98;101439.22;5025738;28;20077;-56
2023/01/07 02:32:11;;;;;;;2.08;1.52;;;;;;;18.55;49.76;101441.91;5025569;28;20022;-56
2023/01/07 02:35:04;;;;;;;2.80;2.00;;;;;;;18.54;49.76;101437.53;5007909;28;20022;-57
2023/01/07 02:37:59;;;;;;;2.47;1.70;;;;;;;18.54;49.89;101434.84;5025190;28;20088;-55
2023/01/07 02:40:47;;;;;;;2.38;1.85;;;;;;;18.53;50.02;101441.22;5008333;28;20104;-56
2023/01/07 02:43:18;;;;;;;2.55;1.75;;;;;;;18.52;49.85;101440.41;5025769;28;20018;-55
2023/01/07 02:45:48;;;;;;;2.13;1.55;;;;;;;18.52;49.84;101436.81;5007735;28;20022;-54
2023/01/07 02:48:15;;;;;;;2.45;1.77;;;;;;;18.52;49.83;101423.34;5007618;28;20032;-56
2023/01/07 02:50:40;;;;;;;1.88;1.40;;;;;;;18.51;49.80;101419.81;5025366;28;20057;-56
2023/01/07 02:53:07;;;;;;;1.55;1.38;;;;;;;18.51;49.91;101427.91;5025246;28;20026;-57
2023/01/07 02:55:51;;;;;;;2.05;1.48;;;;;;;18.51;49.94;101421.69;5025214;28;20026;-56
2023/01/07 02:58:47;;;;;;;2.50;1.77;;;;;;;18.49;50.08;101422.69;5025417;28;20065;-55
2023/01/07 03:01:21;;;;;;;2.80;1.70;;;;;;;18.49;49.97;101414.59;5025247;28;20032;-54
2023/01/07 03:03:55;;;;;;;3.05;1.52;;;;;;;18.49;49.81;101409.22;5024936;28;20510;-57
2023/01/07 03:06:45;;;;;;;2.53;1.60;;;;;;;18.49;49.82;101403.00;5025126;28;20037;-57
2023/01/07 03:09:31;;;;;;;1.90;1.70;;;;;;;18.47;49.81;101400.44;5019302;28;20060;-57
2023/01/07 03:12:20;;;;;;;2.33;1.67;;;;;;;18.47;50.04;101399.59;5005411;28;20030;-58
2023/01/07 03:14:50;;;;;;;2.22;1.60;;;;;;;18.46;50.05;101403.28;5005407;28;20034;-58
2023/01/07 03:17:42;;;;;;;1.70;1.50;;;;;;;18.38;49.95;101382.50;4998914;28;20079;-58
2023/01/07 03:20:09;;;;;;;1.70;1.30;;;;;;;18.45;50.09;101398.91;5007041;28;20033;-58
2023/01/07 03:22:35;;;;;;;1.90;1.60;;;;;;;18.44;49.68;101389.16;5007306;28;20675;-58
2023/01/07 03:25:01;;;;;;;3.38;1.70;;;;;;;18.45;49.82;101383.59;5007044;28;20026;-58
2023/01/07 03:27:29;;;;;;;1.98;1.50;;;;;;;18.43;49.87;101384.75;5007121;28;20028;-56
2023/01/07 03:29:55;;;;;;;3.33;1.70;;;;;;;18.43;49.64;101388.28;5007142;28;20052;-58
2023/01/07 03:33:00;;;;;;;2.13;1.50;;;;;;;18.43;50.13;101379.34;5024635;28;20422;-57
2023/01/07 03:35:27;;;;;;;1.75;1.35;;;;;;;18.42;49.72;101381.22;4950158;29;20038;-58
2023/01/07 03:37:52;;;;;;;2.05;1.55;;;;;;;18.41;50.04;101374.13;4967794;29;20051;-58
2023/01/07 03:40:18;;;;;;;2.33;1.60;;;;;;;18.42;49.84;101381.22;4968073;29;20524;-57
2023/01/07 03:42:46;;;;;;;2.75;1.52;;;;;;;18.41;50.06;101381.38;4951713;29;20066;-58
2023/01/07 03:45:14;;;;;;;2.22;1.52;;;;;;;18.40;49.76;101368.91;4967997;29;20062;-58
2023/01/07 03:47:42;;;;;;;2.08;1.80;;;;;;;18.40;49.78;101367.06;4967521;29;20112;-58
2023/01/07 03:50:08;;;;;;;2.10;1.52;;;;;;;18.40;49.84;101368.91;4967580;29;20030;-58
2023/01/07 03:52:33;;;;;;;2.40;1.60;;;;;;;18.38;49.71;101360.97;4967502;29;20047;-58
2023/01/07 03:54:58;;;;;;;2.30;1.70;;;;;;;18.38;49.77;101360.97;4967660;29;20031;-58
2023/01/07 03:57:24;;;;;;;2.15;1.45;;;;;;;18.38;50.01;101363.66;4967477;29;20031;-56
2023/01/07 03:59:49;;;;;;;2.38;2.03;;;;;;;18.37;50.00;101361.97;4967668;29;20050;-58
2023/01/07 04:02:14;;;;;;;2.08;1.30;;;;;;;18.37;49.96;101361.97;4967763;29;20039;-58
2023/01/07 04:04:39;;;;;;;2.28;2.08;;;;;;;18.38;49.82;101365.53;4967458;29;20038;-57
2023/01/07 04:07:05;;;;;;;2.40;1.60;;;;;;;18.31;50.05;101340.19;5021656;28;20072;-56
2023/01/07 04:09:30;;;;;;;1.65;1.40;;;;;;;18.37;49.83;101355.75;5019790;28;20050;-53
2023/01/07 04:11:55;;;;;;;2.05;1.50;;;;;;;18.36;49.81;101346.00;5008429;28;20093;-56
2023/01/07 04:14:20;;;;;;;2.20;1.60;;;;;;;18.36;50.01;101351.38;5008592;28;20037;-58
2023/01/07 04:16:46;;;;;;;1.77;1.40;;;;;;;18.35;49.74;101345.16;5017089;28;20056;-55
2023/01/07 04:19:11;;;;;;;2.05;1.50;;;;;;;18.34;49.77;101351.50;5028062;28;20026;-56
2023/01/07 04:21:36;;;;;;;1.60;1.38;;;;;;;18.33;49.76;101343.59;5028014;28;20079;-53
2023/01/07 04:24:02;;;;;;;1.60;1.50;;;;;;;18.34;49.77;101345.28;5027891;28;20022;-54
2023/01/07 04:26:27;;;;;;;2.35;1.35;;;;;;;18.32;49.98;101337.38;5027947;28;20056;-55
2023/01/07 04:28:52;;;;;;;1.52;1.20;;;;;;;18.33;49.74;101340.91;5027703;28;20026;-56
2023/01/07 04:31:17;;;;;;;2.10;1.60;;;;;;;18.32;49.77;101331.16;5027710;28;20479;-57
2023/01/07 04:33:43;;;;;;;1.58;1.48;;;;;;;18.31;49.84;101327.63;5027531;28;20034;-58
2023/01/07 04:36:08;;;;;;;1.90;1.40;;;;;;;18.31;49.72;101318.66;5027262;28;20034;-57
2023/01/07 04:38:33;;;;;;;1.80;1.55;;;;;;;18.31;49.78;101313.28;5027737;28;20060;-57
2023/01/07 04:40:59;;;;;;;1.42;1.23;;;;;;;18.30;50.09;101309.75;5027523;28;20026;-56
2023/01/07 04:43:24;;;;;;;3.17;1.42;;;;;;;18.29;50.14;101315.31;5027835;28;20033;-58
2023/01/07 04:45:49;;;;;;;1.52;1.20;;;;;;;18.29;49.81;101309.91;5027465;28;20079;-57
2023/01/07 04:48:15;;;;;;;1.73;1.30;;;;;;;18.28;49.77;101316.31;5010141;28;20026;-56
2023/01/07 04:50:40;;;;;;;1.83;1.60;;;;;;;18.28;49.95;101300.16;5027626;28;20036;-55
2023/01/07 04:53:06;;;;;;;2.92;1.40;;;;;;;18.28;50.13;101302.84;5027429;28;20042;-56
2023/01/07 04:55:31;;;;;;;1.73;1.42;;;;;;;18.27;49.99;101290.41;5027319;28;20506;-57
2023/01/07 04:57:57;;;;;;;1.48;1.30;;;;;;;18.24;50.01;101284.31;5027437;28;20069;-58
2023/01/07 05:00:22;;;;;;;1.70;1.25;;;;;;;18.24;50.03;101287.00;5027441;28;20025;-56
2023/01/07 05:02:47;;;;;;;2.55;1.38;;;;;;;18.25;49.81;101285.16;5027269;28;20088;-56
2023/01/07 05:05:12;;;;;;;2.17;1.50;;;;;;;18.25;50.10;101285.16;5021688;28;20037;-57
2023/01/07 05:07:38;;;;;;;4.40;1.92;;;;;;;18.24;50.03;101278.09;5023390;28;20026;-56
2023/01/07 05:10:03;;;;;;;2.03;1.27;;;;;;;18.24;49.62;101280.78;5026832;28;20021;-57
2023/01/07 05:12:33;;;;;;;1.55;1.10;;;;;;;18.20;49.88;101276.72;5026951;28;20482;-58
2023/01/07 05:14:58;;;;;;;1.88;1.42;;;;;;;18.22;50.08;101277.38;5026739;28;20378;-54
2023/01/07 05:17:23;;;;;;;1.40;1.23;;;;;;;18.21;49.94;101284.59;5026826;28;20026;-58
2023/01/07 05:19:49;;;;;;;1.38;1.27;;;;;;;18.22;50.14;101285.44;5026632;28;20029;-55
2023/01/07 05:22:14;;;;;;;1.55;1.27;;;;;;;18.21;50.11;101276.53;5026904;28;20055;-56
2023/01/07 05:24:39;;;;;;;1.30;1.20;;;;;;;18.21;50.10;101281.06;5026915;28;20026;-56
2023/01/07 05:27:04;;;;;;;1.63;1.40;;;;;;;18.21;50.05;101275.69;5026374;28;20036;-55
2023/01/07 05:29:30;;;;;;;1.73;1.42;;;;;;;18.21;49.71;101278.38;5026280;28;20061;-56
2023/01/07 05:31:55;;;;;;;1.38;1.23;;;;;;;18.20;50.12;101265.94;5026376;28;20030;-57
2023/01/07 05:34:20;;;;;;;1.58;1.38;;;;;;;18.20;50.28;101271.31;5025998;28;20033;-56
2023/01/07 05:36:45;;;;;;;1.45;1.30;;;;;;;18.21;50.06;101270.31;5025690;28;20073;-56
2023/01/07 05:39:11;;;;;;;2.47;1.13;;;;;;;18.21;50.13;101264.94;5025857;28;20041;-58
2023/01/07 05:41:36;;;;;;;1.92;1.33;;;;;;;18.20;50.24;101266.78;5025805;28;20463;-55
2023/01/07 05:44:01;;;;;;;1.55;1.40;;;;;;;18.20;50.10;101258.72;5026038;28;20144;-57
2023/01/07 05:46:26;;;;;;;1.70;1.30;;;;;;;18.13;50.38;101248.72;5025692;28;20029;-52
2023/01/07 05:48:53;;;;;;;1.70;1.30;;;;;;;18.21;50.49;101257.69;5026381;28;20055;-57
2023/01/07 05:51:18;;;;;;;2.08;1.70;;;;;;;18.22;50.31;101256.72;5025905;28;20062;-56
2023/01/07 05:53:44;;;;;;;1.75;1.60;;;;;;;18.22;50.53;101262.09;5025924;28;20025;-56
2023/01/07 05:56:09;;;;;;;1.85;1.48;;;;;;;18.22;50.41;101254.03;5025397;28;20022;-57
2023/01/07 05:58:34;;;;;;;1.90;1.25;;;;;;;18.24;50.83;101257.41;5025421;28;20030;-57
2023/01/07 06:00:59;;;;;;;1.95;1.45;;;;;;;18.24;50.59;101257.41;5025798;28;20057;-57
2023/01/07 06:03:25;;;;;;;3.55;1.55;;;;;;;18.24;50.95;101254.72;5025847;28;20025;-56
2023/01/07 06:05:50;;;;;;;1.58;1.30;;;;;;;18.20;50.69;101245.25;5024504;28;20029;-57
2023/01/07 06:08:15;;;;;;;1.30;1.15;;;;;;;18.20;50.83;101247.94;5023170;28;20033;-57
2023/01/07 06:10:41;;;;;;;1.80;1.60;;;;;;;18.25;50.86;101250.16;5004775;28;20078;-57
2023/01/07 06:13:06;;;;;;;1.77;1.27;;;;;;;18.24;50.40;101246.63;5025542;28;20079;-56
2023/01/07 06:15:32;;;;;;;1.92;1.40;;;;;;;18.27;50.99;101250.03;5025011;28;20123;-57
2023/01/07 06:17:57;;;;;;;1.20;1.10;;;;;;;18.26;50.68;101243.78;5025509;28;20025;-56
2023/01/07 06:20:23;;;;;;;1.65;1.25;;;;;;;18.27;50.59;101248.19;5001979;28;20037;-55
2023/01/07 06:22:48;;;;;;;2.90;1.27;;;;;;;18.23;50.83;101244.09;5025477;28;20521;-57
2023/01/07 06:25:14;;;;;;;1.70;1.20;;;;;;;18.29;50.89;101238.09;5025118;28;20041;-55
2023/01/07 06:27:39;;;;;;;1.40;1.30;;;;;;;18.29;50.90;101235.38;5024989;28;20026;-53
2023/01/07 06:30:06;;;;;;;1.55;1.33;;;;;;;18.30;50.58;101233.53;5025253;28;20038;-55
2023/01/07 06:32:36;;;;;;;1.40;1.30;;;;;;;18.29;50.53;101227.31;5025086;28;20887;-57
2023/01/07 06:35:01;;;;;;;1.40;1.20;;;;;;;18.30;50.89;101222.78;5022054;28;20053;-56
2023/01/07 06:37:26;;;;;;;1.40;1.20;;;;;;;18.30;50.88;101226.31;5025120;28;20054;-57
2023/01/07 06:39:52;;;;;;;1.90;1.20;;;;;;;18.31;50.89;101221.75;5025342;28;20057;-57
2023/01/07 06:42:17;;;;;;;2.05;1.33;;;;;;;18.32;50.58;101220.78;5025491;28;20034;-50
2023/01/07 06:44:42;;;;;;;3.35;1.50;;;;;;;18.31;51.03;101211.00;5025011;28;20037;-54
2023/01/07 06:47:07;;;;;;;2.78;1.30;;;;;;;18.33;50.75;101203.63;5025451;28;20053;-52
2023/01/07 06:49:33;;;;;;;1.55;1.27;;;;;;;18.34;50.79;101214.22;5025010;28;20356;-53
2023/01/07 06:51:58;;;;;;;1.88;1.20;;;;;;;18.33;50.71;101206.31;5024499;28;20083;-57
2023/01/07 06:54:23;;;;;;;1.27;1.17;;;;;;;18.35;50.68;101215.06;5024428;28;20037;-54
2023/01/07 06:56:48;;;;;;;4.03;1.67;;;;;;;18.35;51.01;101205.16;5024551;28;20049;-56
2023/01/07 06:59:14;;;;;;;1.85;1.30;;;;;;;18.34;51.18;101208.84;5024544;28;20049;-56
2023/01/07 07:01:39;;;;;;;2.10;1.10;;;;;;;18.35;50.85;101204.31;5024795;28;20360;-57
2023/01/07 07:04:04;;;;;;;2.42;1.20;;;;;;;18.33;50.81;101193.69;5024897;28;20064;-55
2023/01/07 07:06:29;;;;;;;1.92;1.73;;;;;;;18.36;50.47;101197.94;5024656;28;20081;-55
2023/01/07 07:08:55;;;;;;;1.42;1.10;;;;;;;18.34;50.89;101192.69;5022511;28;20017;-54
2023/01/07 07:11:20;;;;;;;2.20;1.30;;;;;;;18.35;50.98;101188.16;5023311;28;20100;-56
2023/01/07 07:13:45;;;;;;;2.13;1.30;;;;;;;18.34;50.86;101187.31;5024484;28;20065;-56
2023/01/07 07:16:11;;;;;;;1.60;1.33;;;;;;;18.34;50.93;101192.69;5006806;28;20029;-57
2023/01/07 07:18:36;;;;;;;1.20;1.05;;;;;;;18.33;50.76;101184.78;5024434;28;20033;-57
2023/01/07 07:21:01;;;;;;;1.27;1.17;;;;;;;18.33;50.96;101179.41;5024373;28;20036;-58
2023/01/07 07:23:27;;;;;;;1.48;1.25;;;;;;;18.33;51.15;101180.25;5021486;28;20442;-55
2023/01/07 07:25:52;;;;;;;1.10;1.00;;;;;;;18.33;50.84;101185.63;5024673;28;20026;-55
2023/01/07 07:28:17;;;;;;;2.65;1.30;;;;;;;18.37;50.64;101183.47;5024799;28;20545;-57
2023/01/07 07:30:42;;;;;;;2.80;1.20;;;;;;;18.39;50.73;101179.63;5024395;28;20144;-57
2023/01/07 07:33:07;;;;;;;2.67;1.15;;;;;;;18.44;50.50;101182.69;5024664;28;20044;-56
2023/01/07 07:35:33;;;;;;;2.00;1.33;;;;;;;18.46;50.40;101177.13;5024433;28;20030;-58
2023/01/07 07:37:58;;;;;;;2.03;1.10;;;;;;;18.47;50.60;101171.56;5024148;28;20061;-57
2023/01/07 07:40:23;;;;;;;1.50;1.10;;;;;;;18.48;50.36;101181.34;5021347;28;20030;-55
2023/01/07 07:42:49;;;;;;;3.17;1.00;;;;;;;18.49;50.83;101174.13;5023989;28;20037;-58
2023/01/07 07:45:18;;;;;;;2.00;1.23;;;;;;;18.47;50.73;101166.19;5015759;28;20030;-57
2023/01/07 07:47:44;;;;;;;1.17;1.08;;;;;;;18.49;50.39;101164.19;5010127;28;20030;-57
2023/01/07 07:50:09;;;;;;;1.25;1.13;;;;;;;18.53;50.23;101169.28;5004239;28;20033;-57
2023/01/07 07:52:34;;;;;;;1.30;1.05;;;;;;;18.52;50.17;101163.03;5004873;28;20018;-57
2023/01/07 07:54:59;;;;;;;1.27;1.10;;;;;;;18.53;50.11;101161.19;5004201;28;20598;-55
2023/01/07 07:57:25;;;;;;;1.98;1.08;;;;;;;18.52;50.15;101160.34;5004873;28;20034;-57
2023/01/07 07:59:50;;;;;;;2.72;1.30;;;;;;;18.53;50.32;101171.97;5004525;28;20030;-57
2023/01/07 08:02:17;;;;;;;3.75;1.05;;;;;;;18.47;50.35;101163.50;5004839;28;20034;-57
2023/01/07 08:04:42;;;;;;;1.70;1.27;;;;;;;18.52;50.52;101172.94;5004288;28;20029;-57
2023/01/07 08:07:09;;;;;;;1.92;1.20;;;;;;;18.50;50.25;101173.13;5004925;28;20030;-57
2023/01/07 08:09:34;;;;;;;2.55;1.15;;;;;;;18.50;50.55;101165.03;4996076;28;20094;-57
2023/01/07 08:11:59;;;;;;;1.20;1.10;;;;;;;18.48;50.19;101161.69;5024403;28;20041;-57
2023/01/07 08:14:25;;;;;;;1.67;1.10;;;;;;;18.47;50.22;101155.41;5024190;28;20022;-57
2023/01/07 08:16:50;;;;;;;3.20;1.20;;;;;;;18.49;50.30;101152.59;5024269;28;20030;-57
2023/01/07 08:19:15;;;;;;;1.95;1.45;;;;;;;18.50;49.93;101156.97;5023925;28;20034;-56
2023/01/07 08:21:40;;;;;;;1.73;1.40;;;;;;;18.50;50.06;101151.56;5027034;28;20058;-56
2023/01/07 08:24:06;;;;;;;2.92;1.17;;;;;;;18.50;49.93;101151.56;5027459;28;20034;-57
2023/01/07 08:26:31;;;;;;;1.42;1.10;;;;;;;18.51;49.91;101149.72;5026947;28;20041;-56
2023/01/07 08:28:56;;;;;;;1.65;1.05;;;;;;;18.49;49.90;101141.81;5027599;28;20033;-56
2023/01/07 08:31:22;;;;;;;1.20;1.10;;;;;;;18.53;49.76;101139.66;5027697;28;20052;-57
2023/01/07 08:33:47;;;;;;;2.17;1.13;;;;;;;18.53;49.98;101142.34;5027700;28;20093;-57
2023/01/07 08:36:12;;;;;;;1.98;1.20;;;;;;;18.54;49.88;101134.09;5027345;28;20068;-57
2023/01/07 08:38:38;;;;;;;2.45;1.35;;;;;;;18.55;50.09;101134.94;5027630;28;20032;-57
2023/01/07 08:41:03;;;;;;;2.25;1.05;;;;;;;18.56;49.76;101137.44;5027130;28;20091;-57
2023/01/07 08:43:29;;;;;;;1.17;1.08;;;;;;;18.56;49.54;101133.91;5027756;28;20093;-54
2023/01/07 08:45:55;;;;;;;0.95;0.90;;;;;;;18.53;49.74;101129.72;5027206;28;20074;-59
2023/01/07 08:48:20;;;;;;;2.17;1.00;;;;;;;18.58;49.62;101140.84;5027835;28;20053;-57
2023/01/07 08:50:52;;;;;;;1.17;1.00;;;;;;;18.60;50.04;101136.13;5027477;28;20029;-57
2023/01/07 08:53:22;;;;;;;1.42;1.05;;;;;;;18.59;49.54;101139.84;5027636;28;20113;-57
2023/01/07 08:55:47;;;;;;;;;;;;;;;18.62;49.70;101136.81;5027300;28;20029;-58
2023/01/07 08:58:12;;;;;;;1.13;1.02;;;;;;;18.62;49.62;101139.53;5027542;28;19913;-57
2023/01/07 09:00:38;;;;;;;1.40;1.20;;;;;;;18.62;49.80;101134.13;5022688;28;20030;-56
2023/01/07 09:03:03;;;;;;;1.30;1.10;;;;;;;18.63;49.73;101124.19;5007771;28;20149;-58
2023/01/07 09:05:29;;;;;;;1.65;1.33;;;;;;;18.64;49.71;101121.34;5007285;28;20070;-57
2023/01/07 09:07:55;;;;;;;1.50;1.10;;;;;;;18.65;49.70;101119.50;5008072;28;20041;-58
2023/01/07 09:10:21;;;;;;;1.13;1.00;;;;;;;18.60;49.45;101101.13;5025502;28;20060;-56
2023/01/07 09:12:46;;;;;;;1.65;1.25;;;;;;;18.67;49.17;101110.25;5027139;28;20022;-58
2023/01/07 09:15:11;;;;;;;2.30;1.00;;;;;;;18.69;49.10;101104.69;5027358;28;20024;-59
2023/01/07 09:17:37;;;;;;;1.40;0.90;;;;;;;18.64;49.52;101102.47;5027172;28;20103;-58
2023/01/07 09:20:03;;;;;;;1.05;0.95;;;;;;;18.70;49.32;101109.97;5026937;28;20026;-58
2023/01/07 09:22:30;;;;;;;1.10;0.80;;;;;;;18.68;49.43;101108.41;5026826;28;20022;-57
2023/01/07 09:24:55;;;;;;;1.08;0.93;;;;;;;18.69;49.40;101108.28;5026866;28;20021;-56
2023/01/07 09:27:21;;;;;;;1.25;1.10;;;;;;;18.71;49.45;101102.72;5026821;28;20121;-57
2023/01/07 09:29:47;;;;;;;1.00;0.90;;;;;;;18.72;49.05;101107.09;5026583;28;20022;-59
2023/01/07 09:32:12;;;;;;;1.90;1.10;;;;;;;18.73;49.50;101106.97;5026069;28;20030;-57
2023/01/07 09:34:37;;;;;;;1.20;0.98;;;;;;;18.74;49.25;101107.78;5026321;28;20029;-57
2023/01/07 09:37:02;;;;;;;0.90;0.80;;;;;;;18.76;48.96;101107.63;5026616;28;20105;-57
2023/01/07 09:39:28;;;;;;;1.80;1.10;;;;;;;18.76;48.96;101103.06;5026809;28;20029;-57
2023/01/07 09:42:35;;;;;;;0.80;0.80;;;;;;;18.77;49.30;101093.97;5026436;28;20081;-59
2023/01/07 09:45:12;;;;;;;1.05;0.90;;;;;;;18.78;48.92;101097.53;5026723;28;20022;-55
2023/01/07 09:47:42;;;;;;;1.55;1.08;;;;;;;18.72;49.10;101086.38;5009094;28;20018;-54
2023/01/07 09:50:21;;;;;;;1.35;0.98;;;;;;;18.76;48.94;101092.31;5008829;28;20503;-56
2023/01/07 09:52:49;;;;;;;1.38;1.00;;;;;;;18.80;49.15;101095.50;5026592;28;20033;-58
2023/01/07 09:55:51;;;;;;;1.02;0.93;;;;;;;18.81;48.96;101089.13;5008322;28;20065;-57
2023/01/07 09:58:18;;;;;;;1.15;0.90;;;;;;;18.82;48.79;101088.97;4908315;29;20033;-57
2023/01/07 10:01:45;;;;;;;0.82;0.82;;;;;;;18.82;48.58;101086.28;4908166;29;20048;-56
2023/01/07 10:04:16;;;;;;;1.05;0.95;;;;;;;18.83;48.78;101079.88;4870832;29;20025;-54
2023/01/07 10:06:58;;;;;;;1.15;1.02;;;;;;;18.82;48.93;101086.28;4870566;29;20487;-56
2023/01/07 10:09:41;;;;;;;1.20;1.10;;;;;;;18.83;48.58;101079.03;4885229;29;20040;-56
2023/01/07 10:12:15;;;;;;;1.10;1.00;;;;;;;18.83;48.80;101079.88;4908110;29;20033;-56
2023/01/07 10:15:18;;;;;;;0.70;0.70;;;;;;;18.83;48.85;101069.09;4892157;29;20056;-55
2023/01/07 10:17:52;;;;;;;1.50;1.17;;;;;;;18.84;48.88;101078.84;4907791;29;20044;-56
2023/01/07 10:20:19;;;;;;;0.75;0.75;;;;;;;18.86;48.70;101071.47;4890864;29;20069;-56
2023/01/07 10:22:52;;;;;;;1.08;0.95;;;;;;;18.87;48.69;101058.84;4889039;29;20044;-57
2023/01/07 10:25:31;;;;;;;1.92;0.93;;;;;;;18.83;48.71;101052.94;4888886;29;20239;-57
2023/01/07 10:28:00;;;;;;;0.60;0.60;;;;;;;18.88;48.58;101050.59;4889252;29;20044;-56
2023/01/07 10:30:25;;;;;;;;;;;;;;;18.90;48.57;101043.19;4874348;29;20033;-56
2023/01/07 10:32:58;;;;;;;1.05;0.90;;;;;;;18.92;48.31;101037.63;4934353;29;19964;-58
2023/01/07 10:35:23;;;;;;;1.58;0.85;;;;;;;18.92;48.40;101030.38;4989409;28;20037;-57
2023/01/07 10:37:49;;;;;;;1.50;1.08;;;;;;;18.90;48.47;101018.06;5007764;28;20053;-58
2023/01/07 10:40:43;;;;;;;1.00;1.00;;;;;;;18.96;48.39;101026.34;5008072;28;20038;-58
2023/01/07 10:43:34;;;;;;;1.83;1.10;;;;;;;18.98;48.14;101023.47;5007602;28;20029;-57
2023/01/07 10:46:08;;;;;;;0.90;0.80;;;;;;;18.98;48.50;101013.53;5025394;28;20564;-58
2023/01/07 10:49:28;;;;;;;0.85;0.80;;;;;;;19.00;48.39;101013.41;5025406;28;20034;-56
2023/01/07 10:52:05;;;;;;;0.82;0.82;;;;;;;19.01;48.18;101000.75;4929350;29;20046;-57
2023/01/07 10:54:33;;;;;;;0.90;0.80;;;;;;;19.02;48.19;100994.34;4927799;29;20107;-57
2023/01/07 10:57:18;;;;;;;1.40;1.00;;;;;;;19.03;48.23;100977.16;4926424;29;20128;-58
2023/01/07 10:59:49;;;;;;;0.70;0.70;;;;;;;19.03;47.95;100979.88;4910355;29;20028;-57
2023/01/07 11:02:20;;;;;;;1.35;1.00;;;;;;;19.03;48.36;100969.97;4910422;29;20058;-57
2023/01/07 11:04:45;;;;;;;1.08;0.88;;;;;;;19.02;48.41;100968.25;4926171;29;20059;-55
2023/01/07 11:07:21;;;;;;;0.80;0.80;;;;;;;19.03;48.34;100956.47;4926136;29;20043;-57
2023/01/07 11:09:46;;;;;;;1.70;1.10;;;;;;;19.03;48.08;100959.19;4910427;29;20071;-58
2023/01/07 11:12:29;;;;;;;1.50;1.08;;;;;;;19.04;48.16;100960.00;4926020;29;20059;-55
2023/01/07 11:14:55;;;;;;;2.17;0.93;;;;;;;19.05;48.12;100953.59;4926068;29;20056;-57
2023/01/07 11:17:48;;;;;;;1.00;0.90;;;;;;;19.07;48.39;100943.50;4929669;29;20295;-58
2023/01/07 11:20:41;;;;;;;1.50;1.00;;;;;;;19.07;48.44;100947.03;4944777;29;20067;-57
2023/01/07 11:23:18;;;;;;;1.90;1.02;;;;;;;19.09;48.26;100933.41;4944763;29;20073;-57
2023/01/07 11:25:43;;;;;;;1.52;0.98;;;;;;;19.09;48.45;100923.47;4933792;29;20517;-57
2023/01/07 11:28:16;;;;;;;1.10;0.85;;;;;;;19.09;48.17;100917.22;5014233;28;20130;-56
2023/01/07 11:30:42;;;;;;;1.30;1.00;;;;;;;19.10;48.31;100916.22;5024765;28;20495;-58
2023/01/07 11:33:18;;;;;;;1.73;1.10;;;;;;;19.05;48.25;100897.84;5024701;28;20022;-57
2023/01/07 11:35:51;;;;;;;2.42;1.35;;;;;;;18.95;48.60;100868.41;5006668;28;20052;-56
2023/01/07 11:38:34;;;;;;;1.52;0.93;;;;;;;19.11;48.37;100889.06;5007245;28;20097;-58